Allendale, Wyoming
Current Conditions -  °F | °C
As of 10:53 AM on Friday 24 Oct 2014 (Local Time) from KCPR Reporting Station
Clear Clear  
Wind Chill: 66°   Ceiling: Unl
Heat Index: 66°   Visibility: 10mi
Dew Point: 27°   Wind: 20mph
Humidity: 23%   Direction: 220°SW
Pressure: 30.13"   Gusts: 30mph
Location:  42.84°N, 106.275°W
Report Text: KCPR 241653Z 22017G26KT 10SM CLR 19/M03 A3013 RMK AO2 PK WND 22028/1612 SLP153 T01891028
Loading
Personal Weather Stations






























Interactive Weather Map New forecast layout! Learn more

10-Day Weather Forecast

Advertisements
Track Severe Weather on mobile